Time;durP1;ratioP1;P1;durP2;ratioP2;P2;SDS_P1;SDS_P2;PMS_P1;PMS_P2;Temp;Humidity;BMP_temperature;BMP_pressure;BME280_temperature;BME280_humidity;BME280_pressure;Samples;Min_cycle;Max_cycle;Signal;HPM_P1;HPM_P2
2023/05/08 00:01:27;;;;;;;16.00;10.27;;;;;;;;;;6277620;22;20300;-96
2023/05/08 00:03:53;;;;;;;17.58;10.45;;;;;;;;;;6252788;22;20022;-96
2023/05/08 00:06:19;;;;;;;20.77;11.45;;;;;;;;;;6275826;22;20014;-95
2023/05/08 00:08:46;;;;;;;21.48;11.57;;;;;;;;;;6277922;22;20373;-95
2023/05/08 00:11:12;;;;;;;21.65;11.90;;;;;;;;;;6272461;22;20004;-96
2023/05/08 00:13:40;;;;;;;17.13;10.82;;;;;;;;;;6284681;22;20003;-96
2023/05/08 00:16:19;;;;;;;25.33;12.10;;;;;;;;;;6265653;22;20094;-96
2023/05/08 00:18:45;;;;;;;24.08;11.73;;;;;;;;;;6291458;22;20008;-96
2023/05/08 00:21:27;;;;;;;20.08;10.93;;;;;;;;;;6275411;22;20020;-95
2023/05/08 00:23:54;;;;;;;22.50;11.90;;;;;;;;;;6274964;22;20018;-96
2023/05/08 00:26:20;;;;;;;20.05;11.23;;;;;;;;;;6277136;22;20007;-96
2023/05/08 00:28:47;;;;;;;20.88;12.18;;;;;;;;;;6276111;22;20003;-95
2023/05/08 00:31:13;;;;;;;21.63;11.77;;;;;;;;;;6276283;22;20011;-95
2023/05/08 00:33:46;;;;;;;16.98;10.75;;;;;;;;;;6276028;22;20544;-95
2023/05/08 00:36:14;;;;;;;19.30;11.35;;;;;;;;;;6252838;22;20012;-96
2023/05/08 00:38:43;;;;;;;19.90;12.20;;;;;;;;;;6277559;22;19995;-96
2023/05/08 00:41:09;;;;;;;19.70;12.25;;;;;;;;;;6278152;22;20393;-95
2023/05/08 00:43:45;;;;;;;20.38;12.15;;;;;;;;;;6276688;22;20082;-96
2023/05/08 00:46:11;;;;;;;21.15;11.65;;;;;;;;;;6280799;22;20016;-96
2023/05/08 00:48:37;;;;;;;19.60;11.27;;;;;;;;;;6278273;22;20034;-95
2023/05/08 00:51:10;;;;;;;19.77;11.35;;;;;;;;;;6254480;22;20204;-95
2023/05/08 00:53:38;;;;;;;22.35;12.32;;;;;;;;;;6252754;22;20308;-95
2023/05/08 00:56:05;;;;;;;22.05;12.25;;;;;;;;;;6276811;22;20416;-94
2023/05/08 00:58:32;;;;;;;19.92;12.20;;;;;;;;;;6277042;22;20548;-96
2023/05/08 01:00:59;;;;;;;18.55;11.70;;;;;;;;;;6247353;22;20019;-95
2023/05/08 01:03:25;;;;;;;23.00;13.65;;;;;;;;;;6251603;22;20016;-96
2023/05/08 01:05:56;;;;;;;20.13;12.32;;;;;;;;;;6278160;22;20333;-95
2023/05/08 01:08:23;;;;;;;20.10;11.88;;;;;;;;;;6280110;22;19999;-95
2023/05/08 01:11:07;;;;;;;22.42;13.82;;;;;;;;;;6275192;22;20005;-95
2023/05/08 01:13:42;;;;;;;18.23;11.70;;;;;;;;;;6277181;22;20011;-95
2023/05/08 01:16:18;;;;;;;22.25;13.38;;;;;;;;;;6289109;22;20014;-96
2023/05/08 01:18:53;;;;;;;21.42;12.25;;;;;;;;;;6301171;22;20000;-96
2023/05/08 01:21:19;;;;;;;29.33;13.38;;;;;;;;;;6295922;22;20008;-96
2023/05/08 01:23:54;;;;;;;20.60;11.45;;;;;;;;;;6285941;22;20008;-96
2023/05/08 01:26:20;;;;;;;20.98;12.20;;;;;;;;;;6282879;22;20014;-96
2023/05/08 01:29:20;;;;;;;19.27;11.93;;;;;;;;;;6283605;22;20034;-96
2023/05/08 01:32:04;;;;;;;20.48;11.88;;;;;;;;;;6212117;22;20014;-96
2023/05/08 01:34:32;;;;;;;20.45;11.77;;;;;;;;;;6278950;22;20061;-96
2023/05/08 01:37:01;;;;;;;25.13;11.65;;;;;;;;;;6277945;22;20058;-96
2023/05/08 01:39:39;;;;;;;19.80;11.73;;;;;;;;;;6279905;22;20057;-96
2023/05/08 01:42:10;;;;;;;22.13;11.77;;;;;;;;;;6279124;22;20103;-96
2023/05/08 01:44:39;;;;;;;23.83;12.93;;;;;;;;;;6279854;22;20066;-95
2023/05/08 01:47:06;;;;;;;20.05;11.98;;;;;;;;;;6276041;22;20034;-94
2023/05/08 01:49:44;;;;;;;24.83;13.18;;;;;;;;;;6276194;22;20033;-95
2023/05/08 01:52:22;;;;;;;21.05;12.10;;;;;;;;;;6277587;22;20008;-96
2023/05/08 01:54:55;;;;;;;20.83;12.50;;;;;;;;;;6284788;22;20012;-96
2023/05/08 01:57:22;;;;;;;21.02;12.45;;;;;;;;;;6278449;22;20008;-96
2023/05/08 01:59:55;;;;;;;22.85;11.90;;;;;;;;;;6277676;22;20034;-96
2023/05/08 02:02:22;;;;;;;23.08;12.48;;;;;;;;;;6278846;22;20065;-95
2023/05/08 02:04:49;;;;;;;19.15;11.02;;;;;;;;;;6251203;22;20023;-94
2023/05/08 02:07:15;;;;;;;24.70;12.93;;;;;;;;;;6277868;22;20010;-91
2023/05/08 02:09:43;;;;;;;22.40;11.70;;;;;;;;;;6276752;22;20194;-95
2023/05/08 02:12:10;;;;;;;18.90;11.77;;;;;;;;;;6271203;22;20061;-94
2023/05/08 02:14:38;;;;;;;23.48;12.07;;;;;;;;;;6276370;22;20004;-96
2023/05/08 02:17:05;;;;;;;22.52;12.98;;;;;;;;;;6253759;22;20019;-95
2023/05/08 02:19:33;;;;;;;20.98;12.57;;;;;;;;;;6249261;22;20026;-95
2023/05/08 02:22:00;;;;;;;22.48;12.95;;;;;;;;;;6274704;22;20043;-94
2023/05/08 02:24:28;;;;;;;21.27;12.93;;;;;;;;;;6251698;22;20011;-95
2023/05/08 02:26:56;;;;;;;22.50;12.50;;;;;;;;;;6273841;22;20003;-96
2023/05/08 02:29:23;;;;;;;24.13;13.52;;;;;;;;;;6276764;22;20003;-96
2023/05/08 02:31:50;;;;;;;20.70;13.20;;;;;;;;;;6253744;22;20004;-96
2023/05/08 02:34:17;;;;;;;20.75;12.98;;;;;;;;;;6286787;22;20052;-96
2023/05/08 02:36:43;;;;;;;19.83;12.05;;;;;;;;;;6255114;22;20027;-94
2023/05/08 02:39:12;;;;;;;22.00;12.98;;;;;;;;;;6281546;22;20015;-95
2023/05/08 02:41:44;;;;;;;21.38;12.80;;;;;;;;;;6279357;22;20012;-95
2023/05/08 02:44:17;;;;;;;23.50;13.25;;;;;;;;;;6276298;22;20406;-92
2023/05/08 02:46:46;;;;;;;22.15;13.43;;;;;;;;;;6281760;22;20011;-96
2023/05/08 02:49:38;;;;;;;21.67;12.85;;;;;;;;;;6281680;22;20014;-96
2023/05/08 02:52:22;;;;;;;24.42;12.73;;;;;;;;;;6237818;22;20017;-95
2023/05/08 02:54:52;;;;;;;24.02;13.30;;;;;;;;;;6277847;22;20010;-94
2023/05/08 02:57:22;;;;;;;20.33;12.40;;;;;;;;;;6278557;22;19999;-95
2023/05/08 02:59:57;;;;;;;23.02;13.05;;;;;;;;;;6277705;22;20016;-96
2023/05/08 03:02:41;;;;;;;22.67;13.05;;;;;;;;;;6276050;22;20004;-96
2023/05/08 03:05:13;;;;;;;;;;;;;;;;;;6279805;22;20013;-96
2023/05/08 03:07:40;;;;;;;21.95;12.40;;;;;;;;;;6276848;22;19934;-96
2023/05/08 03:10:10;;;;;;;21.48;12.48;;;;;;;;;;6249325;22;20068;-95
2023/05/08 03:12:39;;;;;;;25.98;14.48;;;;;;;;;;6275950;22;20059;-96
2023/05/08 03:15:12;;;;;;;26.52;14.38;;;;;;;;;;6278283;22;20015;-96
2023/05/08 03:17:42;;;;;;;24.60;14.05;;;;;;;;;;6281755;22;20035;-96
2023/05/08 03:20:19;;;;;;;23.60;14.18;;;;;;;;;;6281818;22;20516;-96
2023/05/08 03:22:56;;;;;;;23.10;13.07;;;;;;;;;;6281682;22;20095;-96
2023/05/08 03:25:32;;;;;;;23.30;13.35;;;;;;;;;;6266971;22;20007;-96
2023/05/08 03:28:20;;;;;;;28.70;13.98;;;;;;;;;;6273726;22;19992;-96
2023/05/08 03:33:53;;;;;;;27.40;13.23;;;;;;;;;;6206259;23;20049;-96
2023/05/08 03:36:21;;;;;;;21.77;12.55;;;;;;;;;;6286856;22;20014;-96
2023/05/08 03:39:04;;;;;;;23.92;13.50;;;;;;;;;;6260995;22;20016;-96
2023/05/08 03:41:30;;;;;;;23.90;13.00;;;;;;;;;;6285093;22;20012;-96
2023/05/08 03:44:07;;;;;;;24.00;13.23;;;;;;;;;;6289911;22;20527;-96
2023/05/08 03:46:40;;;;;;;24.88;13.52;;;;;;;;;;6293648;22;20567;-96
2023/05/08 03:49:12;;;;;;;29.55;12.80;;;;;;;;;;6287907;22;20019;-95
2023/05/08 03:51:39;;;;;;;20.20;12.32;;;;;;;;;;6280428;22;20014;-95
2023/05/08 03:54:08;;;;;;;29.52;13.65;;;;;;;;;;6276235;22;20026;-96
2023/05/08 03:56:34;;;;;;;24.20;12.85;;;;;;;;;;6253114;22;20015;-96
2023/05/08 03:59:09;;;;;;;20.65;11.68;;;;;;;;;;6276552;22;20014;-96
2023/05/08 04:01:48;;;;;;;21.65;12.70;;;;;;;;;;6279539;22;20022;-96
2023/05/08 04:04:18;;;;;;;20.23;12.70;;;;;;;;;;6275565;22;20019;-96
2023/05/08 04:07:06;;;;;;;20.75;12.20;;;;;;;;;;6287145;22;20533;-96
2023/05/08 04:09:43;;;;;;;21.08;12.65;;;;;;;;;;6289680;22;20003;-96
2023/05/08 04:12:18;;;;;;;21.38;12.50;;;;;;;;;;6285732;22;20007;-96
2023/05/08 04:14:55;;;;;;;24.43;13.47;;;;;;;;;;6281436;22;20389;-96
2023/05/08 04:17:35;;;;;;;23.98;12.75;;;;;;;;;;6280962;22;20012;-96
2023/05/08 04:20:03;;;;;;;21.77;11.55;;;;;;;;;;6278954;22;20067;-96
2023/05/08 04:22:40;;;;;;;21.23;12.00;;;;;;;;;;6279193;22;19996;-95
2023/05/08 04:25:29;;;;;;;18.20;11.40;;;;;;;;;;6257476;22;20477;-95
2023/05/08 04:27:56;;;;;;;22.52;11.70;;;;;;;;;;6279920;22;20018;-96
2023/05/08 04:30:28;;;;;;;21.52;12.30;;;;;;;;;;6255423;22;20008;-96
2023/05/08 04:32:55;;;;;;;22.08;11.90;;;;;;;;;;6256167;22;20105;-96
2023/05/08 04:35:25;;;;;;;18.02;11.43;;;;;;;;;;6280566;22;20009;-96
2023/05/08 04:38:00;;;;;;;20.05;11.52;;;;;;;;;;6252386;22;20023;-96
2023/05/08 04:40:26;;;;;;;15.90;10.68;;;;;;;;;;6254666;22;20467;-96
2023/05/08 04:42:59;;;;;;;17.80;10.55;;;;;;;;;;6251660;22;20012;-95
2023/05/08 04:45:36;;;;;;;18.00;11.15;;;;;;;;;;6259175;22;20007;-96
2023/05/08 04:48:22;;;;;;;17.08;10.82;;;;;;;;;;6288349;22;20010;-96
2023/05/08 04:51:10;;;;;;;16.23;10.15;;;;;;;;;;6286431;22;20004;-96
2023/05/08 04:53:53;;;;;;;15.80;10.07;;;;;;;;;;6288190;22;20052;-95
2023/05/08 04:56:20;;;;;;;16.95;9.57;;;;;;;;;;6281362;22;20322;-95
2023/05/08 04:58:47;;;;;;;15.50;9.63;;;;;;;;;;6256229;22;20018;-95
2023/05/08 05:01:13;;;;;;;21.25;10.00;;;;;;;;;;6254924;22;20266;-95
2023/05/08 05:03:39;;;;;;;16.35;9.95;;;;;;;;;;6256267;22;20141;-95
2023/05/08 05:06:12;;;;;;;15.68;9.20;;;;;;;;;;6256516;22;20007;-96
2023/05/08 05:08:44;;;;;;;15.77;9.57;;;;;;;;;;6261470;22;20004;-96
2023/05/08 05:11:14;;;;;;;16.15;9.55;;;;;;;;;;6263443;22;20024;-96
2023/05/08 05:13:40;;;;;;;15.48;9.73;;;;;;;;;;6291038;22;20402;-96
2023/05/08 05:16:13;;;;;;;15.27;9.32;;;;;;;;;;6285201;22;20012;-96
2023/05/08 05:18:46;;;;;;;14.50;8.63;;;;;;;;;;6286865;22;20012;-96
2023/05/08 05:21:13;;;;;;;13.75;9.27;;;;;;;;;;6255742;22;20022;-96
2023/05/08 05:23:40;;;;;;;15.57;10.18;;;;;;;;;;6254229;22;20062;-95
2023/05/08 05:26:09;;;;;;;18.88;10.38;;;;;;;;;;6281996;22;20067;-94
2023/05/08 05:28:44;;;;;;;15.48;9.75;;;;;;;;;;6260280;22;20024;-95
2023/05/08 05:31:11;;;;;;;15.88;9.32;;;;;;;;;;6264609;22;20014;-96
2023/05/08 05:33:37;;;;;;;14.60;8.88;;;;;;;;;;6255321;22;20011;-94
2023/05/08 05:36:03;;;;;;;14.82;8.60;;;;;;;;;;6252368;22;20307;-94
2023/05/08 05:38:29;;;;;;;14.57;9.73;;;;;;;;;;6254661;22;20134;-93
2023/05/08 05:41:05;;;;;;;18.45;9.75;;;;;;;;;;6254988;22;20019;-95
2023/05/08 05:43:32;;;;;;;16.83;9.20;;;;;;;;;;6277108;22;20019;-95
2023/05/08 05:46:08;;;;;;;12.43;8.90;;;;;;;;;;6275103;22;20203;-96
2023/05/08 05:48:34;;;;;;;18.65;10.15;;;;;;;;;;6274118;22;20023;-95
2023/05/08 05:51:13;;;;;;;13.77;9.52;;;;;;;;;;6276330;22;20004;-94
2023/05/08 05:53:43;;;;;;;15.80;9.98;;;;;;;;;;6276922;22;20083;-96
2023/05/08 05:56:10;;;;;;;16.10;9.55;;;;;;;;;;6254942;22;20035;-96
2023/05/08 05:58:37;;;;;;;16.27;9.10;;;;;;;;;;6277114;22;20085;-95
2023/05/08 06:01:14;;;;;;;15.57;10.25;;;;;;;;;;6284434;22;20023;-95
2023/05/08 06:03:40;;;;;;;12.43;9.00;;;;;;;;;;6264923;22;20016;-95
2023/05/08 06:06:07;;;;;;;14.60;9.52;;;;;;;;;;6254094;22;20067;-93
2023/05/08 06:08:33;;;;;;;16.73;9.57;;;;;;;;;;6249901;22;20004;-95
2023/05/08 06:11:01;;;;;;;14.82;9.85;;;;;;;;;;6276452;22;19999;-93
2023/05/08 06:13:35;;;;;;;15.63;9.18;;;;;;;;;;6250850;22;20042;-94
2023/05/08 06:16:04;;;;;;;13.68;8.82;;;;;;;;;;6252764;22;20015;-91
2023/05/08 06:18:31;;;;;;;13.77;9.63;;;;;;;;;;6274966;22;20008;-94
2023/05/08 06:21:00;;;;;;;14.25;9.77;;;;;;;;;;6250813;22;20070;-96
2023/05/08 06:23:29;;;;;;;14.98;9.30;;;;;;;;;;6247807;22;20070;-94
2023/05/08 06:25:56;;;;;;;13.95;9.75;;;;;;;;;;6273216;22;20023;-93
2023/05/08 06:28:24;;;;;;;13.10;9.38;;;;;;;;;;6247027;22;20019;-95
2023/05/08 06:30:56;;;;;;;13.15;8.63;;;;;;;;;;6249819;22;20008;-93
2023/05/08 06:33:23;;;;;;;15.27;9.60;;;;;;;;;;6274609;22;20476;-94
2023/05/08 06:35:56;;;;;;;13.52;9.30;;;;;;;;;;6249319;22;20012;-94
2023/05/08 06:38:32;;;;;;;15.77;9.23;;;;;;;;;;6249920;22;20012;-95
2023/05/08 06:40:58;;;;;;;13.40;8.90;;;;;;;;;;6274516;22;20078;-93
2023/05/08 06:43:24;;;;;;;14.45;8.75;;;;;;;;;;6249545;22;20452;-93
2023/05/08 06:45:51;;;;;;;14.02;9.38;;;;;;;;;;6249742;22;20070;-93
2023/05/08 06:48:18;;;;;;;13.45;8.93;;;;;;;;;;6277419;22;20007;-93
2023/05/08 06:50:45;;;;;;;15.15;8.88;;;;;;;;;;6272015;22;20067;-94
2023/05/08 06:53:20;;;;;;;11.80;8.73;;;;;;;;;;6278351;22;20357;-94
2023/05/08 06:55:54;;;;;;;14.77;9.20;;;;;;;;;;6253685;22;20012;-93
2023/05/08 06:58:39;;;;;;;13.45;8.88;;;;;;;;;;6278978;22;20007;-90
2023/05/08 07:01:11;;;;;;;13.88;9.15;;;;;;;;;;6277095;22;20027;-89
2023/05/08 07:03:40;;;;;;;12.93;9.13;;;;;;;;;;6253822;22;20011;-90
2023/05/08 07:06:11;;;;;;;17.00;9.60;;;;;;;;;;6278016;22;20019;-91
2023/05/08 07:08:40;;;;;;;16.73;9.60;;;;;;;;;;6256113;22;20010;-94
2023/05/08 07:11:08;;;;;;;13.25;8.40;;;;;;;;;;6279776;22;20008;-94
2023/05/08 07:13:35;;;;;;;13.88;8.73;;;;;;;;;;6277948;22;20062;-91
2023/05/08 07:16:11;;;;;;;13.40;9.15;;;;;;;;;;6275912;22;20031;-91
2023/05/08 07:18:42;;;;;;;13.57;8.85;;;;;;;;;;6277019;22;20012;-92
2023/05/08 07:21:14;;;;;;;16.33;10.23;;;;;;;;;;6254034;22;20073;-90
2023/05/08 07:23:41;;;;;;;16.95;9.80;;;;;;;;;;6252295;22;20019;-91
2023/05/08 07:26:07;;;;;;;14.50;9.25;;;;;;;;;;6251828;22;20038;-91
2023/05/08 07:28:36;;;;;;;12.70;9.27;;;;;;;;;;6251139;22;20007;-92
2023/05/08 07:31:08;;;;;;;15.20;8.80;;;;;;;;;;6251088;22;20038;-91
2023/05/08 07:33:34;;;;;;;14.10;9.02;;;;;;;;;;6251911;22;20095;-91
2023/05/08 07:36:00;;;;;;;15.68;10.02;;;;;;;;;;6250536;22;20014;-92
2023/05/08 07:38:39;;;;;;;13.32;9.52;;;;;;;;;;6278509;22;20090;-92
2023/05/08 07:41:05;;;;;;;15.10;10.02;;;;;;;;;;6277757;22;20014;-92
2023/05/08 07:43:32;;;;;;;12.85;9.32;;;;;;;;;;6253996;22;20026;-91
2023/05/08 07:46:13;;;;;;;14.32;9.82;;;;;;;;;;6254028;22;20008;-91
2023/05/08 07:48:45;;;;;;;14.98;10.13;;;;;;;;;;6280221;22;20426;-94
2023/05/08 07:51:13;;;;;;;13.20;9.18;;;;;;;;;;6250745;22;20004;-93
2023/05/08 07:53:47;;;;;;;15.23;10.00;;;;;;;;;;6277888;22;20011;-93
2023/05/08 07:56:34;;;;;;;12.20;9.20;;;;;;;;;;6278320;22;20249;-94
2023/05/08 07:59:00;;;;;;;15.50;10.15;;;;;;;;;;6280384;22;20058;-90
2023/05/08 08:01:33;;;;;;;12.45;9.00;;;;;;;;;;6276168;22;20016;-90
2023/05/08 08:03:59;;;;;;;14.75;8.95;;;;;;;;;;6254116;22;20012;-92
2023/05/08 08:06:25;;;;;;;12.40;9.35;;;;;;;;;;6279140;22;20011;-93
2023/05/08 08:08:52;;;;;;;14.02;10.05;;;;;;;;;;6278060;22;20418;-93
2023/05/08 08:11:33;;;;;;;19.55;10.10;;;;;;;;;;6277205;22;20594;-93
2023/05/08 08:14:00;;;;;;;14.90;9.23;;;;;;;;;;6252903;22;20804;-93
2023/05/08 08:16:28;;;;;;;19.48;10.75;;;;;;;;;;6251240;22;20015;-94
2023/05/08 08:19:04;;;;;;;12.10;8.40;;;;;;;;;;6277323;22;20014;-95
2023/05/08 08:21:30;;;;;;;14.02;9.48;;;;;;;;;;6275433;22;20007;-93
2023/05/08 08:24:00;;;;;;;12.80;9.25;;;;;;;;;;6249291;22;20008;-94
2023/05/08 08:26:26;;;;;;;13.88;9.98;;;;;;;;;;6277468;22;20012;-94
2023/05/08 08:28:52;;;;;;;13.45;9.65;;;;;;;;;;6253072;22;20440;-94
2023/05/08 08:31:22;;;;;;;13.90;9.18;;;;;;;;;;6251093;22;20018;-94
2023/05/08 08:33:48;;;;;;;15.07;10.43;;;;;;;;;;6278652;22;20370;-94
2023/05/08 08:36:14;;;;;;;16.20;10.20;;;;;;;;;;6250255;22;20028;-95
2023/05/08 08:38:43;;;;;;;19.15;11.65;;;;;;;;;;6276492;22;20012;-93
2023/05/08 08:41:22;;;;;;;16.75;11.27;;;;;;;;;;6280076;22;20012;-93
2023/05/08 08:43:49;;;;;;;18.02;10.45;;;;;;;;;;6251432;22;20365;-93
2023/05/08 08:46:18;;;;;;;15.68;11.02;;;;;;;;;;6251294;22;20055;-94
2023/05/08 08:48:46;;;;;;;13.77;10.38;;;;;;;;;;6277444;22;20038;-93
2023/05/08 08:51:14;;;;;;;18.42;10.23;;;;;;;;;;6280414;22;20011;-94
2023/05/08 08:53:43;;;;;;;15.32;10.48;;;;;;;;;;6275429;22;20015;-92
2023/05/08 08:56:17;;;;;;;17.20;10.95;;;;;;;;;;6282226;22;20018;-94
2023/05/08 08:59:03;;;;;;;15.18;10.38;;;;;;;;;;6282054;22;20011;-94
2023/05/08 09:01:30;;;;;;;14.48;10.68;;;;;;;;;;6278361;22;20077;-93
2023/05/08 09:04:30;;;;;;;;;;;;;;;;;;;;;
2023/05/08 09:06:51;;;;;;;18.65;11.65;;;;;;;;;;6275431;22;20010;-94
2023/05/08 09:09:23;;;;;;;13.73;10.27;;;;;;;;;;6277414;22;20468;-93
2023/05/08 09:11:52;;;;;;;14.25;10.10;;;;;;;;;;6254385;22;20018;-94
2023/05/08 09:14:20;;;;;;;17.02;10.60;;;;;;;;;;6285106;22;20007;-93
2023/05/08 09:16:47;;;;;;;13.85;10.05;;;;;;;;;;6254379;22;20366;-95
2023/05/08 09:19:26;;;;;;;15.60;10.30;;;;;;;;;;6278949;22;20024;-93
2023/05/08 09:21:55;;;;;;;15.27;10.18;;;;;;;;;;6279186;22;20003;-93
2023/05/08 09:24:26;;;;;;;18.42;11.45;;;;;;;;;;6251747;22;20011;-95
2023/05/08 09:26:54;;;;;;;15.27;10.07;;;;;;;;;;6254554;22;20386;-93
2023/05/08 09:29:21;;;;;;;16.83;10.93;;;;;;;;;;6277873;22;20443;-94
2023/05/08 09:31:57;;;;;;;17.77;11.40;;;;;;;;;;6289495;22;20040;-93
2023/05/08 09:34:34;;;;;;;14.93;11.02;;;;;;;;;;6272542;22;20315;-95
2023/05/08 09:37:18;;;;;;;13.35;9.80;;;;;;;;;;6283806;22;19988;-94
2023/05/08 09:39:46;;;;;;;17.75;10.23;;;;;;;;;;6284245;22;20004;-94
2023/05/08 09:42:19;;;;;;;16.15;10.27;;;;;;;;;;6256942;22;20195;-95
2023/05/08 09:45:04;;;;;;;14.50;9.77;;;;;;;;;;6286272;22;19996;-94
2023/05/08 09:47:49;;;;;;;14.55;10.68;;;;;;;;;;6284161;22;20003;-94
2023/05/08 09:50:16;;;;;;;13.77;10.77;;;;;;;;;;6286434;22;20014;-93
2023/05/08 09:52:49;;;;;;;13.57;9.98;;;;;;;;;;6287199;22;20004;-96
2023/05/08 09:55:24;;;;;;;15.23;11.07;;;;;;;;;;6260964;22;20102;-93
2023/05/08 09:58:05;;;;;;;14.10;9.98;;;;;;;;;;6283730;22;20082;-94
2023/05/08 10:00:47;;;;;;;15.30;10.98;;;;;;;;;;6260602;22;20035;-94
2023/05/08 10:03:43;;;;;;;14.50;10.98;;;;;;;;;;6283629;22;20039;-95
2023/05/08 10:06:13;;;;;;;12.97;10.67;;;;;;;;;;6286721;22;20015;-96
2023/05/08 10:08:39;;;;;;;12.80;10.77;;;;;;;;;;6284746;22;19999;-95
2023/05/08 10:11:20;;;;;;;16.80;11.38;;;;;;;;;;6281811;22;20003;-95
2023/05/08 10:13:51;;;;;;;16.75;11.57;;;;;;;;;;6285161;22;20086;-95
2023/05/08 10:16:22;;;;;;;12.82;10.23;;;;;;;;;;6283307;22;20018;-95
2023/05/08 10:18:49;;;;;;;18.42;10.18;;;;;;;;;;6286483;22;20015;-95
2023/05/08 10:21:20;;;;;;;15.00;11.93;;;;;;;;;;6280640;22;20066;-95
2023/05/08 10:23:48;;;;;;;17.10;11.00;;;;;;;;;;6256207;22;20023;-96
2023/05/08 10:26:18;;;;;;;13.95;11.75;;;;;;;;;;6283381;22;20010;-94
2023/05/08 10:29:00;;;;;;;15.45;11.15;;;;;;;;;;6281503;22;20004;-95
2023/05/08 10:31:28;;;;;;;17.60;12.00;;;;;;;;;;6284383;22;20000;-95
2023/05/08 10:36:51;;;;;;;14.98;11.60;;;;;;;;;;6285970;22;20015;-94
2023/05/08 10:39:25;;;;;;;13.52;10.93;;;;;;;;;;6259033;22;20000;-94
2023/05/08 10:41:54;;;;;;;16.35;12.13;;;;;;;;;;6285326;22;20008;-95
2023/05/08 10:44:23;;;;;;;18.00;11.50;;;;;;;;;;6248954;22;20031;-95
2023/05/08 10:46:56;;;;;;;14.25;11.23;;;;;;;;;;6287913;22;20030;-94
2023/05/08 10:52:53;;;;;;;14.32;11.75;;;;;;;;;;6286919;22;20004;-96
2023/05/08 10:55:54;;;;;;;15.40;12.02;;;;;;;;;;6295220;22;20007;-95
2023/05/08 11:01:17;;;;;;;16.48;11.85;;;;;;;;;;6296375;22;20081;-95
2023/05/08 11:03:58;;;;;;;16.58;12.40;;;;;;;;;;6292935;22;20023;-96
2023/05/08 11:06:57;;;;;;;;;;;;;;;;;;;;;
2023/05/08 11:09:52;;;;;;;15.85;10.88;;;;;;;;;;6266185;22;19999;-96
2023/05/08 11:12:30;;;;;;;18.48;12.93;;;;;;;;;;6178528;23;20462;-96
2023/05/08 11:15:19;;;;;;;20.40;13.00;;;;;;;;;;6209900;23;20009;-96
2023/05/08 11:17:54;;;;;;;;;;;;;;;;;;6271023;22;20025;-96
2023/05/08 11:21:09;;;;;;;;;;;;;;;;;;;;;
2023/05/08 11:24:11;;;;;;;16.17;13.30;;;;;;;;;;6136344;23;20008;-96
2023/05/08 11:26:42;;;;;;;16.55;12.93;;;;;;;;;;6139296;23;20012;-96
2023/05/08 11:37:38;;;;;;;;;;;;;;;;;;;;;
2023/05/08 11:40:39;;;;;;;18.75;13.32;;;;;;;;;;6251633;23;20036;-94
2023/05/08 11:43:31;;;;;;;17.20;12.98;;;;;;;;;;6228475;23;20016;-92
2023/05/08 11:46:07;;;;;;;16.88;13.55;;;;;;;;;;6235366;22;20012;-90
2023/05/08 11:51:33;;;;;;;17.85;14.00;;;;;;;;;;6136698;23;20014;-90
2023/05/08 11:54:08;;;;;;;21.05;13.98;;;;;;;;;;6112518;23;20006;-91
2023/05/08 11:56:38;;;;;;;17.63;13.88;;;;;;;;;;6194676;23;20008;-91
2023/05/08 11:59:18;;;;;;;16.60;13.93;;;;;;;;;;6232264;23;20501;-89
2023/05/08 12:01:49;;;;;;;16.05;13.85;;;;;;;;;;6231711;23;20004;-91
2023/05/08 12:07:35;;;;;;;18.80;12.30;;;;;;;;;;6165053;23;20020;-93
2023/05/08 12:10:04;;;;;;;17.50;14.02;;;;;;;;;;6139592;23;20008;-92
2023/05/08 12:12:59;;;;;;;20.60;14.45;;;;;;;;;;6116922;23;20037;-88
2023/05/08 12:15:35;;;;;;;19.30;13.20;;;;;;;;;;6136522;23;20005;-90
2023/05/08 12:18:08;;;;;;;17.05;14.68;;;;;;;;;;6161228;23;20010;-94
2023/05/08 12:20:43;;;;;;;16.60;13.13;;;;;;;;;;6135261;23;20013;-92
2023/05/08 12:23:10;;;;;;;18.85;14.63;;;;;;;;;;6114070;23;20013;-93
2023/05/08 12:25:39;;;;;;;17.45;15.02;;;;;;;;;;6134238;23;20012;-93
2023/05/08 12:28:06;;;;;;;15.88;13.32;;;;;;;;;;6135834;23;20540;-91
2023/05/08 12:30:33;;;;;;;18.42;14.50;;;;;;;;;;6144314;23;20002;-93
2023/05/08 12:33:13;;;;;;;17.98;14.70;;;;;;;;;;6228770;23;19988;-95
2023/05/08 12:38:43;;;;;;;18.90;14.10;;;;;;;;;;6255483;22;20063;-92
2023/05/08 12:41:11;;;;;;;18.48;15.15;;;;;;;;;;6229308;23;20062;-92
2023/05/08 12:43:41;;;;;;;17.08;14.65;;;;;;;;;;6203534;23;20016;-92
2023/05/08 12:46:13;;;;;;;19.23;14.65;;;;;;;;;;6205487;23;19992;-91
2023/05/08 12:48:43;;;;;;;16.15;12.32;;;;;;;;;;6230885;23;20008;-93
2023/05/08 12:54:08;;;;;;;21.83;15.05;;;;;;;;;;6162063;23;20049;-91
2023/05/08 12:56:52;;;;;;;18.08;14.70;;;;;;;;;;6144441;23;20013;-91
2023/05/08 12:59:38;;;;;;;18.58;13.45;;;;;;;;;;6210620;23;20008;-91
2023/05/08 13:02:04;;;;;;;16.58;13.77;;;;;;;;;;6229899;23;20032;-93
2023/05/08 13:04:36;;;;;;;17.98;13.95;;;;;;;;;;6229518;23;20011;-93
2023/05/08 13:07:04;;;;;;;15.25;12.88;;;;;;;;;;6228634;23;20004;-94
2023/05/08 13:09:44;;;;;;;18.85;13.00;;;;;;;;;;6203250;23;20011;-91
2023/05/08 13:12:10;;;;;;;16.27;12.88;;;;;;;;;;6203974;23;20418;-91
2023/05/08 13:14:39;;;;;;;16.23;13.98;;;;;;;;;;6229011;23;20004;-92
2023/05/08 13:20:09;;;;;;;15.55;12.77;;;;;;;;;;6232387;23;20055;-92
2023/05/08 13:22:59;;;;;;;18.08;12.57;;;;;;;;;;6225221;23;20012;-93
2023/05/08 13:25:34;;;;;;;16.08;13.38;;;;;;;;;;6138618;23;20037;-89
2023/05/08 13:28:00;;;;;;;;;;;;;;;;;;6216953;23;20082;-91
2023/05/08 13:30:28;;;;;;;18.48;12.88;;;;;;;;;;6226734;23;20282;-91
2023/05/08 13:32:54;;;;;;;18.33;13.85;;;;;;;;;;6206272;23;20047;-94
2023/05/08 13:35:38;;;;;;;15.75;12.57;;;;;;;;;;6207250;23;20031;-95
2023/05/08 13:38:19;;;;;;;14.82;11.02;;;;;;;;;;6228364;22;20474;-93
2023/05/08 13:40:53;;;;;;;16.88;12.32;;;;;;;;;;6180621;23;20457;-92
2023/05/08 13:43:23;;;;;;;16.60;11.85;;;;;;;;;;6202361;23;20060;-94
2023/05/08 13:45:53;;;;;;;16.90;10.77;;;;;;;;;;6197786;23;20031;-92
2023/05/08 13:48:45;;;;;;;;;;;;;;;;;;;;;
2023/05/08 13:51:25;;;;;;;13.95;12.15;;;;;;;;;;6209570;23;20012;-95
2023/05/08 13:54:17;;;;;;;11.73;10.52;;;;;;;;;;6172895;23;20015;-93
2023/05/08 13:56:49;;;;;;;14.32;10.70;;;;;;;;;;6211782;23;20004;-92
2023/05/08 13:59:15;;;;;;;12.13;9.88;;;;;;;;;;6198881;23;20005;-91
2023/05/08 14:01:49;;;;;;;12.38;10.20;;;;;;;;;;6221216;23;20001;-93
2023/05/08 14:04:15;;;;;;;15.90;10.60;;;;;;;;;;6174330;23;20036;-92
2023/05/08 14:06:44;;;;;;;10.98;8.68;;;;;;;;;;6172871;23;20440;-91
2023/05/08 14:09:10;;;;;;;11.02;8.70;;;;;;;;;;6219535;23;20341;-93
2023/05/08 14:11:39;;;;;;;19.58;10.73;;;;;;;;;;6194428;23;20028;-91
2023/05/08 14:14:07;;;;;;;11.68;9.18;;;;;;;;;;6170430;23;20497;-92
2023/05/08 14:16:50;;;;;;;;;;;;;;;;;;;;;
2023/05/08 14:19:25;;;;;;;9.82;8.23;;;;;;;;;;6201657;23;20036;-91
2023/05/08 14:21:54;;;;;;;10.68;8.02;;;;;;;;;;6223888;23;20019;-94
2023/05/08 14:27:36;;;;;;;10.30;7.18;;;;;;;;;;6199196;23;20019;-95
2023/05/08 14:30:02;;;;;;;11.45;7.93;;;;;;;;;;6188100;23;20015;-95
2023/05/08 14:33:06;;;;;;;12.00;7.20;;;;;;;;;;6220118;23;20005;-95
2023/05/08 14:38:40;;;;;;;9.88;7.18;;;;;;;;;;6002420;23;20088;-95
2023/05/08 14:41:12;;;;;;;7.72;6.50;;;;;;;;;;6098464;23;20092;-95
2023/05/08 14:43:51;;;;;;;;;;;;;;;;;;;;;
2023/05/08 14:46:34;;;;;;;9.10;6.60;;;;;;;;;;6131024;23;20444;-96
2023/05/08 14:49:07;;;;;;;11.13;6.72;;;;;;;;;;6089084;23;20010;-94
2023/05/08 14:51:55;;;;;;;;;;;;;;;;;;;;;
2023/05/08 14:54:25;;;;;;;9.55;6.55;;;;;;;;;;6134400;23;20385;-95
2023/05/08 14:57:00;;;;;;;9.68;5.65;;;;;;;;;;6085177;23;20076;-95
2023/05/08 14:59:36;;;;;;;7.53;6.57;;;;;;;;;;6048441;23;20008;-95
2023/05/08 15:17:49;;;;;;;8.60;6.50;;;;;;;;;;6259981;22;20350;-92
2023/05/08 15:20:25;;;;;;;11.02;7.85;;;;;;;;;;6259514;22;20011;-92
2023/05/08 15:22:53;;;;;;;12.25;7.20;;;;;;;;;;6264691;22;20050;-90
2023/05/08 15:25:31;;;;;;;15.30;6.97;;;;;;;;;;6286633;22;20385;-92
2023/05/08 15:28:11;;;;;;;13.10;7.22;;;;;;;;;;6291139;22;20021;-93
2023/05/08 15:30:47;;;;;;;11.40;7.13;;;;;;;;;;6224087;22;20014;-92
2023/05/08 15:33:13;;;;;;;12.20;6.97;;;;;;;;;;6288313;22;20000;-92
2023/05/08 15:38:41;;;;;;;11.90;6.80;;;;;;;;;;6196754;23;20102;-94
2023/05/08 15:41:39;;;;;;;;;;;;;;;;;;;;;
2023/05/08 15:44:09;;;;;;;13.98;7.53;;;;;;;;;;6187903;23;20020;-94
2023/05/08 15:46:51;;;;;;;14.32;7.13;;;;;;;;;;6189728;23;20012;-94
2023/05/08 15:49:44;;;;;;;9.68;7.28;;;;;;;;;;6194081;22;20013;-96
2023/05/08 15:52:10;;;;;;;10.95;6.93;;;;;;;;;;6265219;22;20003;-93
2023/05/08 15:54:37;;;;;;;14.55;8.13;;;;;;;;;;6264366;22;20026;-93
2023/05/08 15:57:03;;;;;;;9.95;7.65;;;;;;;;;;6283634;22;20022;-94
2023/05/08 15:59:49;;;;;;;;;;;;;;;;;;6282990;22;20070;-94
2023/05/08 16:02:31;;;;;;;11.63;7.85;;;;;;;;;;6282047;22;20518;-94
2023/05/08 16:05:08;;;;;;;11.30;7.32;;;;;;;;;;6261976;22;20016;-93